Map

Track Data

SID SEASON NUMBER BASIN SUBBASIN NAME ISO_TIME NATURE LAT LON WMO_WIND WMO_PRES WMO_AGENCY TRACK_TYPE DIST2LAND LANDFALL IFLAG USA_AGENCY USA_ATCF_ID USA_LAT USA_LON USA_RECORD USA_STATUS USA_WIND USA_PRES USA_SSHS USA_R34_NE USA_R34_SE USA_R34_SW USA_R34_NW USA_R50_NE USA_R50_SE USA_R50_SW USA_R50_NW USA_R64_NE USA_R64_SE USA_R64_SW USA_R64_NW USA_POCI USA_ROCI USA_RMW USA_EYE TOKYO_LAT TOKYO_LON TOKYO_GRADE TOKYO_WIND TOKYO_PRES TOKYO_R50_DIR TOKYO_R50_LONG TOKYO_R50_SHORT TOKYO_R30_DIR TOKYO_R30_LONG TOKYO_R30_SHORT TOKYO_LAND CMA_LAT CMA_LON CMA_CAT CMA_WIND CMA_PRES HKO_LAT HKO_LON HKO_CAT HKO_WIND HKO_PRES NEWDELHI_LAT NEWDELHI_LON NEWDELHI_GRADE NEWDELHI_WIND NEWDELHI_PRES NEWDELHI_CI NEWDELHI_DP NEWDELHI_POCI REUNION_LAT REUNION_LON REUNION_TYPE REUNION_WIND REUNION_PRES REUNION_TNUM REUNION_CI REUNION_RMW REUNION_R34_NE REUNION_R34_SE REUNION_R34_SW REUNION_R34_NW REUNION_R50_NE REUNION_R50_SE REUNION_R50_SW REUNION_R50_NW REUNION_R64_NE REUNION_R64_SE REUNION_R64_SW REUNION_R64_NW BOM_LAT BOM_LON BOM_TYPE BOM_WIND BOM_PRES BOM_TNUM BOM_CI BOM_RMW BOM_R34_NE BOM_R34_SE BOM_R34_SW BOM_R34_NW BOM_R50_NE BOM_R50_SE BOM_R50_SW BOM_R50_NW BOM_R64_NE BOM_R64_SE BOM_R64_SW BOM_R64_NW BOM_ROCI BOM_POCI BOM_EYE BOM_POS_METHOD BOM_PRES_METHOD NADI_LAT NADI_LON NADI_CAT NADI_WIND NADI_PRES WELLINGTON_LAT WELLINGTON_LON WELLINGTON_WIND WELLINGTON_PRES DS824_LAT DS824_LON DS824_STAGE DS824_WIND DS824_PRES TD9636_LAT TD9636_LON TD9636_STAGE TD9636_WIND TD9636_PRES TD9635_LAT TD9635_LON TD9635_WIND TD9635_PRES TD9635_ROCI NEUMANN_LAT NEUMANN_LON NEUMANN_CLASS NEUMANN_WIND NEUMANN_PRES MLC_LAT MLC_LON MLC_CLASS MLC_WIND MLC_PRES USA_GUST BOM_GUST BOM_GUST_PER REUNION_GUST REUNION_GUST_PER USA_SEAHGT USA_SEARAD_NE USA_SEARAD_SE USA_SEARAD_SW USA_SEARAD_NW STORM_SPEED STORM_DIR
2000334N08130 2000 110 WP MM RUMBIA 2000-11-28 18:00:00 TS 8.30000 130.400 spur-other 424 424 __O___________ -1 8.30000 130.400 2 44 990 5 67
2000334N08130 2000 110 WP MM RUMBIA 2000-11-28 21:00:00 TS 8.39754 130.637 spur-other 447 447 __P___________ -1 8.45753 130.705 2 44 990 4 40
2000334N08130 2000 110 WP MM RUMBIA 2000-11-29 00:00:00 TS 8.62500 130.675 spur-other 462 433 __OO__________ -1 8.60000 130.800 2 44 990 8.70000 130.300 TS 45 990 4 328
2000334N08130 2000 110 WP MM RUMBIA 2000-11-29 03:00:00 TS 8.72672 130.426 spur-other 433 404 __PP__________ -1 8.71508 130.560 2 44 990 8.75252 130.155 TS 45 990 6 288
2000334N08130 2000 110 WP MM RUMBIA 2000-11-29 06:00:00 TS 8.80000 130.114 spur-other 404 383 __OO__________ -1 8.80000 130.200 2 44 990 8.80000 130.000 TS 45 990 5 283
2000334N08130 2000 110 WP MM RUMBIA 2000-11-29 09:00:00 TS 8.84618 129.919 spur-other 383 366 __PP__________ -1 8.84990 130.015 2 44 990 8.84247 129.822 TS 45 990 4 284
2000334N08130 2000 110 WP MM RUMBIA 2000-11-29 12:00:00 TS 8.90000 129.700 spur-other 366 339 __OO__________ -1 8.90000 129.800 2 44 990 8.90000 129.600 TS 45 990 6 286
2000334N08130 2000 110 WP MM RUMBIA 2000-11-29 15:00:00 TS 8.99626 129.376 spur-other 339 298 __PP__________ -1 9.00756 129.423 2 44 990 8.98497 129.330 TS 45 990 7 286
2000334N08130 2000 110 WP MM RUMBIA 2000-11-29 18:00:00 TS 9.10000 129.000 spur-other 298 265 __OO__________ -1 9.10000 129.000 2 44 990 9.10000 129.000 TS 45 990 7 283
2000334N08130 2000 110 WP MM RUMBIA 2000-11-29 21:00:00 TS 9.15988 128.655 spur-other 267 224 __PP__________ -1 9.09237 128.665 2 44 990 9.22738 128.645 TS 45 990 8 281
2000334N08130 2000 110 WP MM RUMBIA 2000-11-30 00:00:00 TS 9.25000 128.250 spur-other 226 166 __OO__________ -1 9.10000 128.300 2 44 990 9.40000 128.200 TS 45 990 10 286
2000334N08130 2000 110 WP MM RUMBIA 2000-11-30 03:00:00 TS 9.42008 127.711 spur-other 166 118 __PP__________ -1 9.21262 127.793 2 44 990 9.62753 127.630 TS 45 990 12 290
2000334N08130 2000 110 WP MM RUMBIA 2000-11-30 06:00:00 TS 9.65000 127.150 spur-other 123 88 __OO__________ -1 9.40000 127.300 2 44 990 9.90000 127.000 TS 45 990 11 296
2000334N08130 2000 110 WP MM RUMBIA 2000-11-30 09:00:00 TS 9.91737 126.692 spur-other 88 78 __PP__________ -1 9.64231 126.992 2 44 990 10.1924 126.392 TS 45 990 10 302
2000334N08130 2000 110 WP MM RUMBIA 2000-11-30 12:00:00 TS 10.2000 126.250 spur-other 85 55 __OO__________ -1 9.90000 126.700 2 44 990 10.5000 125.800 TS 45 990 11 300
2000334N08130 2000 110 WP MM RUMBIA 2000-11-30 15:00:00 TS 10.4612 125.754 spur-other 56 10 __PP__________ -1 10.1150 126.265 2 44 990 10.8074 125.242 TS 45 990 10 296
2000334N08130 2000 110 WP MM RUMBIA 2000-11-30 18:00:00 TS 10.6429 125.329 spur-other 10 0 __OO__________ -1 10.3000 125.800 2 44 990 11.1000 124.700 TS 45 990 8 290
2000334N08130 2000 110 WP MM RUMBIA 2000-11-30 21:00:00 TS 10.7323 125.006 spur-other 0 0 __PP__________ -1 10.4122 125.445 2 41 992 11.3602 124.153 TS 42 991 6 285
2000334N08130 2000 110 WP MM RUMBIA 2000-12-01 00:00:00 TS 10.8000 124.720 spur-other 10 0 __OO__________ -1 10.6000 125.000 2 38 995 11.6000 123.600 TS 40 992 7 294
2000334N08130 2000 110 WP MM RUMBIA 2000-12-01 03:00:00 TS 11.0275 124.325 spur-other 10 0 __P___________ -1 11.0275 124.325 2 38 995 TS 14 300
2000334N08130 2000 110 WP MM RUMBIA 2000-12-01 06:00:00 TS 11.5000 123.500 spur-other 43 15 __O___________ -1 11.5000 123.500 2 38 995 19 295
2000334N08130 2000 110 WP MM RUMBIA 2000-12-01 09:00:00 TS 11.8530 122.540 spur-other 24 11 __P___________ -1 11.8455 122.613 2 38 995 19 289
2000334N08130 2000 110 WP MM RUMBIA 2000-12-01 12:00:00 TS 12.1000 121.700 spur-other 35 __O___________ -1 12.1000 121.700 2 38 995 17 287

Digital Typhoon Data and Search

About IBTrACS Database

This database is a web-friendly format of International Best Track Archive for Climate Stewardship (IBTrACS), a global best track data archive curated by NOAA dating back to 1842.

Updated: 2021-10-21